sensor_id;sensor_type;location;lat;lon;timestamp;P1;durP1;ratioP1;P2;durP2;ratioP2
74532;SDS011;63012;51.096;-115.366;2023-06-10T00:02:18;23.40;;;13.40;;
74532;SDS011;63012;51.096;-115.366;2023-06-10T00:04:45;22.30;;;13.60;;
74532;SDS011;63012;51.096;-115.366;2023-06-10T00:07:13;21.10;;;13.60;;
74532;SDS011;63012;51.096;-115.366;2023-06-10T00:09:40;22.30;;;13.00;;
74532;SDS011;63012;51.096;-115.366;2023-06-10T00:12:08;21.90;;;12.60;;
74532;SDS011;63012;51.096;-115.366;2023-06-10T00:14:39;23.70;;;13.40;;
74532;SDS011;63012;51.096;-115.366;2023-06-10T00:17:09;22.10;;;12.90;;
74532;SDS011;63012;51.096;-115.366;2023-06-10T00:19:37;23.50;;;13.00;;
74532;SDS011;63012;51.096;-115.366;2023-06-10T00:22:07;21.50;;;13.00;;
74532;SDS011;63012;51.096;-115.366;2023-06-10T00:24:36;19.50;;;12.10;;
74532;SDS011;63012;51.096;-115.366;2023-06-10T00:27:04;19.40;;;11.70;;
74532;SDS011;63012;51.096;-115.366;2023-06-10T00:29:33;20.80;;;12.20;;
74532;SDS011;63012;51.096;-115.366;2023-06-10T00:32:00;18.10;;;11.70;;
74532;SDS011;63012;51.096;-115.366;2023-06-10T00:34:26;19.60;;;11.80;;
74532;SDS011;63012;51.096;-115.366;2023-06-10T00:36:54;20.10;;;11.70;;
74532;SDS011;63012;51.096;-115.366;2023-06-10T00:39:21;19.90;;;11.70;;
74532;SDS011;63012;51.096;-115.366;2023-06-10T00:41:48;20.40;;;12.00;;
74532;SDS011;63012;51.096;-115.366;2023-06-10T00:44:16;19.70;;;11.90;;
74532;SDS011;63012;51.096;-115.366;2023-06-10T00:46:43;18.50;;;11.80;;
74532;SDS011;63012;51.096;-115.366;2023-06-10T00:49:10;18.60;;;11.10;;
74532;SDS011;63012;51.096;-115.366;2023-06-10T00:51:38;21.00;;;11.60;;
74532;SDS011;63012;51.096;-115.366;2023-06-10T00:54:06;19.10;;;11.50;;
74532;SDS011;63012;51.096;-115.366;2023-06-10T00:56:34;19.50;;;11.20;;
74532;SDS011;63012;51.096;-115.366;2023-06-10T00:59:02;18.70;;;10.90;;
74532;SDS011;63012;51.096;-115.366;2023-06-10T01:01:29;18.00;;;11.40;;
74532;SDS011;63012;51.096;-115.366;2023-06-10T01:03:58;19.00;;;10.90;;
74532;SDS011;63012;51.096;-115.366;2023-06-10T01:09:44;17.60;;;10.80;;
74532;SDS011;63012;51.096;-115.366;2023-06-10T01:15:08;17.60;;;10.70;;
74532;SDS011;63012;51.096;-115.366;2023-06-10T01:18:01;18.60;;;10.90;;
74532;SDS011;63012;51.096;-115.366;2023-06-10T01:20:42;20.80;;;10.60;;
74532;SDS011;63012;51.096;-115.366;2023-06-10T01:23:10;18.10;;;11.10;;
74532;SDS011;63012;51.096;-115.366;2023-06-10T01:26:01;16.40;;;9.50;;
74532;SDS011;63012;51.096;-115.366;2023-06-10T01:34:33;10.10;;;5.20;;
74532;SDS011;63012;51.096;-115.366;2023-06-10T01:37:04;9.70;;;4.80;;
74532;SDS011;63012;51.096;-115.366;2023-06-10T01:39:32;8.80;;;4.40;;
74532;SDS011;63012;51.096;-115.366;2023-06-10T01:42:00;8.50;;;3.50;;
74532;SDS011;63012;51.096;-115.366;2023-06-10T01:44:28;7.00;;;2.70;;
74532;SDS011;63012;51.096;-115.366;2023-06-10T01:46:55;6.50;;;2.60;;
74532;SDS011;63012;51.096;-115.366;2023-06-10T01:49:22;6.40;;;2.20;;
74532;SDS011;63012;51.096;-115.366;2023-06-10T01:51:50;6.70;;;2.30;;
74532;SDS011;63012;51.096;-115.366;2023-06-10T01:54:17;6.10;;;2.10;;
74532;SDS011;63012;51.096;-115.366;2023-06-10T01:56:44;5.40;;;1.60;;
74532;SDS011;63012;51.096;-115.366;2023-06-10T01:59:11;4.90;;;1.40;;
74532;SDS011;63012;51.096;-115.366;2023-06-10T02:01:38;5.00;;;1.30;;
74532;SDS011;63012;51.096;-115.366;2023-06-10T02:04:06;4.10;;;1.20;;
74532;SDS011;63012;51.096;-115.366;2023-06-10T02:06:33;4.40;;;0.90;;
74532;SDS011;63012;51.096;-115.366;2023-06-10T02:09:01;4.10;;;1.20;;
74532;SDS011;63012;51.096;-115.366;2023-06-10T02:11:28;4.50;;;0.90;;
74532;SDS011;63012;51.096;-115.366;2023-06-10T02:13:55;4.10;;;0.90;;
74532;SDS011;63012;51.096;-115.366;2023-06-10T02:16:22;4.50;;;1.10;;
74532;SDS011;63012;51.096;-115.366;2023-06-10T02:18:50;4.70;;;1.30;;
74532;SDS011;63012;51.096;-115.366;2023-06-10T02:21:17;3.70;;;0.70;;
74532;SDS011;63012;51.096;-115.366;2023-06-10T02:23:44;4.30;;;1.10;;
74532;SDS011;63012;51.096;-115.366;2023-06-10T02:26:11;4.10;;;1.20;;
74532;SDS011;63012;51.096;-115.366;2023-06-10T02:28:42;4.50;;;1.20;;
74532;SDS011;63012;51.096;-115.366;2023-06-10T02:31:09;4.90;;;1.50;;
74532;SDS011;63012;51.096;-115.366;2023-06-10T02:33:36;4.70;;;1.40;;
74532;SDS011;63012;51.096;-115.366;2023-06-10T02:36:06;3.60;;;0.70;;
74532;SDS011;63012;51.096;-115.366;2023-06-10T02:38:33;3.70;;;1.00;;
74532;SDS011;63012;51.096;-115.366;2023-06-10T02:41:00;3.30;;;0.80;;
74532;SDS011;63012;51.096;-115.366;2023-06-10T02:43:28;4.40;;;1.30;;
74532;SDS011;63012;51.096;-115.366;2023-06-10T02:45:54;4.10;;;0.70;;
74532;SDS011;63012;51.096;-115.366;2023-06-10T02:48:23;4.20;;;0.90;;
74532;SDS011;63012;51.096;-115.366;2023-06-10T02:50:51;5.40;;;1.50;;
74532;SDS011;63012;51.096;-115.366;2023-06-10T02:53:18;4.70;;;1.30;;
74532;SDS011;63012;51.096;-115.366;2023-06-10T02:55:45;4.40;;;1.10;;
74532;SDS011;63012;51.096;-115.366;2023-06-10T02:58:12;5.40;;;1.40;;
74532;SDS011;63012;51.096;-115.366;2023-06-10T03:00:39;4.70;;;1.20;;
74532;SDS011;63012;51.096;-115.366;2023-06-10T03:03:07;5.70;;;1.90;;
74532;SDS011;63012;51.096;-115.366;2023-06-10T03:05:34;4.50;;;1.10;;
74532;SDS011;63012;51.096;-115.366;2023-06-10T03:08:01;5.30;;;1.50;;
74532;SDS011;63012;51.096;-115.366;2023-06-10T03:10:28;5.00;;;1.00;;
74532;SDS011;63012;51.096;-115.366;2023-06-10T03:12:55;5.40;;;1.60;;
74532;SDS011;63012;51.096;-115.366;2023-06-10T03:15:22;4.60;;;1.30;;
74532;SDS011;63012;51.096;-115.366;2023-06-10T03:17:50;5.40;;;1.60;;
74532;SDS011;63012;51.096;-115.366;2023-06-10T03:20:17;5.60;;;1.50;;
74532;SDS011;63012;51.096;-115.366;2023-06-10T03:22:44;4.30;;;1.00;;
74532;SDS011;63012;51.096;-115.366;2023-06-10T03:25:11;5.20;;;1.40;;
74532;SDS011;63012;51.096;-115.366;2023-06-10T03:27:42;4.80;;;1.40;;
74532;SDS011;63012;51.096;-115.366;2023-06-10T03:30:09;5.40;;;1.40;;
74532;SDS011;63012;51.096;-115.366;2023-06-10T03:32:37;4.40;;;1.20;;
74532;SDS011;63012;51.096;-115.366;2023-06-10T03:35:05;5.40;;;1.30;;
74532;SDS011;63012;51.096;-115.366;2023-06-10T03:37:33;4.30;;;1.10;;
74532;SDS011;63012;51.096;-115.366;2023-06-10T03:40:00;5.30;;;1.70;;
74532;SDS011;63012;51.096;-115.366;2023-06-10T03:42:28;5.30;;;1.30;;
74532;SDS011;63012;51.096;-115.366;2023-06-10T03:44:55;4.30;;;1.10;;
74532;SDS011;63012;51.096;-115.366;2023-06-10T03:47:22;4.90;;;1.30;;
74532;SDS011;63012;51.096;-115.366;2023-06-10T03:49:49;5.50;;;1.60;;
74532;SDS011;63012;51.096;-115.366;2023-06-10T03:52:16;5.50;;;1.60;;
74532;SDS011;63012;51.096;-115.366;2023-06-10T03:54:43;4.50;;;1.10;;
74532;SDS011;63012;51.096;-115.366;2023-06-10T03:57:11;6.40;;;1.40;;
74532;SDS011;63012;51.096;-115.366;2023-06-10T03:59:38;10.40;;;2.90;;
74532;SDS011;63012;51.096;-115.366;2023-06-10T04:02:05;9.80;;;2.30;;
74532;SDS011;63012;51.096;-115.366;2023-06-10T04:04:34;8.00;;;2.40;;
74532;SDS011;63012;51.096;-115.366;2023-06-10T04:07:02;9.60;;;2.70;;
74532;SDS011;63012;51.096;-115.366;2023-06-10T04:09:30;8.00;;;2.40;;
74532;SDS011;63012;51.096;-115.366;2023-06-10T04:11:57;8.70;;;2.00;;
74532;SDS011;63012;51.096;-115.366;2023-06-10T04:14:24;7.40;;;2.20;;
74532;SDS011;63012;51.096;-115.366;2023-06-10T04:16:51;8.40;;;2.20;;
74532;SDS011;63012;51.096;-115.366;2023-06-10T04:19:18;7.20;;;2.00;;
74532;SDS011;63012;51.096;-115.366;2023-06-10T04:21:46;6.80;;;2.50;;
74532;SDS011;63012;51.096;-115.366;2023-06-10T04:24:13;9.30;;;2.40;;
74532;SDS011;63012;51.096;-115.366;2023-06-10T04:26:40;7.70;;;2.30;;
74532;SDS011;63012;51.096;-115.366;2023-06-10T04:29:07;6.90;;;1.70;;
74532;SDS011;63012;51.096;-115.366;2023-06-10T04:31:34;6.00;;;1.90;;
74532;SDS011;63012;51.096;-115.366;2023-06-10T04:34:01;6.10;;;1.60;;
74532;SDS011;63012;51.096;-115.366;2023-06-10T04:36:28;6.10;;;1.70;;
74532;SDS011;63012;51.096;-115.366;2023-06-10T04:38:56;6.50;;;2.10;;
74532;SDS011;63012;51.096;-115.366;2023-06-10T04:41:23;6.20;;;2.10;;
74532;SDS011;63012;51.096;-115.366;2023-06-10T04:43:51;5.80;;;1.80;;
74532;SDS011;63012;51.096;-115.366;2023-06-10T04:46:18;5.70;;;2.00;;
74532;SDS011;63012;51.096;-115.366;2023-06-10T04:48:45;5.30;;;1.50;;
74532;SDS011;63012;51.096;-115.366;2023-06-10T04:51:14;5.60;;;1.80;;
74532;SDS011;63012;51.096;-115.366;2023-06-10T04:53:41;6.00;;;1.90;;
74532;SDS011;63012;51.096;-115.366;2023-06-10T04:56:08;5.30;;;1.40;;
74532;SDS011;63012;51.096;-115.366;2023-06-10T04:58:35;6.20;;;1.60;;
74532;SDS011;63012;51.096;-115.366;2023-06-10T05:01:03;5.60;;;1.70;;
74532;SDS011;63012;51.096;-115.366;2023-06-10T05:03:30;6.30;;;2.10;;
74532;SDS011;63012;51.096;-115.366;2023-06-10T05:05:57;6.10;;;2.30;;
74532;SDS011;63012;51.096;-115.366;2023-06-10T05:08:24;5.80;;;1.70;;
74532;SDS011;63012;51.096;-115.366;2023-06-10T05:10:50;6.90;;;2.30;;
74532;SDS011;63012;51.096;-115.366;2023-06-10T05:13:18;5.80;;;1.70;;
74532;SDS011;63012;51.096;-115.366;2023-06-10T05:15:45;7.80;;;2.80;;
74532;SDS011;63012;51.096;-115.366;2023-06-10T05:18:12;7.00;;;2.40;;
74532;SDS011;63012;51.096;-115.366;2023-06-10T05:20:39;7.00;;;2.40;;
74532;SDS011;63012;51.096;-115.366;2023-06-10T05:23:07;7.30;;;2.40;;
74532;SDS011;63012;51.096;-115.366;2023-06-10T05:25:34;6.10;;;2.10;;
74532;SDS011;63012;51.096;-115.366;2023-06-10T05:28:01;7.50;;;2.70;;
74532;SDS011;63012;51.096;-115.366;2023-06-10T05:30:28;7.80;;;2.80;;
74532;SDS011;63012;51.096;-115.366;2023-06-10T05:32:55;6.80;;;2.40;;
74532;SDS011;63012;51.096;-115.366;2023-06-10T05:35:23;8.10;;;2.60;;
74532;SDS011;63012;51.096;-115.366;2023-06-10T05:37:50;7.10;;;2.50;;
74532;SDS011;63012;51.096;-115.366;2023-06-10T05:40:17;7.70;;;2.90;;
74532;SDS011;63012;51.096;-115.366;2023-06-10T05:42:44;7.60;;;3.00;;
74532;SDS011;63012;51.096;-115.366;2023-06-10T05:45:11;7.50;;;3.00;;
74532;SDS011;63012;51.096;-115.366;2023-06-10T05:47:39;7.60;;;2.80;;
74532;SDS011;63012;51.096;-115.366;2023-06-10T05:50:06;9.30;;;3.30;;
74532;SDS011;63012;51.096;-115.366;2023-06-10T05:52:35;7.60;;;3.00;;
74532;SDS011;63012;51.096;-115.366;2023-06-10T05:55:05;9.00;;;4.00;;
74532;SDS011;63012;51.096;-115.366;2023-06-10T05:57:33;8.10;;;3.80;;
74532;SDS011;63012;51.096;-115.366;2023-06-10T06:00:00;9.00;;;4.00;;
74532;SDS011;63012;51.096;-115.366;2023-06-10T06:02:27;9.40;;;4.60;;
74532;SDS011;63012;51.096;-115.366;2023-06-10T06:04:54;9.50;;;4.50;;
74532;SDS011;63012;51.096;-115.366;2023-06-10T06:07:21;9.40;;;4.90;;
74532;SDS011;63012;51.096;-115.366;2023-06-10T06:09:48;9.40;;;4.80;;
74532;SDS011;63012;51.096;-115.366;2023-06-10T06:12:15;8.90;;;4.60;;
74532;SDS011;63012;51.096;-115.366;2023-06-10T06:14:42;9.50;;;5.10;;
74532;SDS011;63012;51.096;-115.366;2023-06-10T06:17:10;10.20;;;5.00;;
74532;SDS011;63012;51.096;-115.366;2023-06-10T06:19:38;9.50;;;4.90;;
74532;SDS011;63012;51.096;-115.366;2023-06-10T06:22:05;9.50;;;4.40;;
74532;SDS011;63012;51.096;-115.366;2023-06-10T06:24:32;9.70;;;5.00;;
74532;SDS011;63012;51.096;-115.366;2023-06-10T06:26:59;11.80;;;5.00;;
74532;SDS011;63012;51.096;-115.366;2023-06-10T06:29:26;10.60;;;5.60;;
74532;SDS011;63012;51.096;-115.366;2023-06-10T06:31:56;9.80;;;4.70;;
74532;SDS011;63012;51.096;-115.366;2023-06-10T06:34:23;10.10;;;5.00;;
74532;SDS011;63012;51.096;-115.366;2023-06-10T06:36:50;11.50;;;5.40;;
74532;SDS011;63012;51.096;-115.366;2023-06-10T06:39:17;10.40;;;5.20;;
74532;SDS011;63012;51.096;-115.366;2023-06-10T06:41:44;11.90;;;5.30;;
74532;SDS011;63012;51.096;-115.366;2023-06-10T06:44:12;12.40;;;5.30;;
74532;SDS011;63012;51.096;-115.366;2023-06-10T06:46:39;10.50;;;5.60;;
74532;SDS011;63012;51.096;-115.366;2023-06-10T06:49:06;11.50;;;5.20;;
74532;SDS011;63012;51.096;-115.366;2023-06-10T06:51:33;10.70;;;5.20;;
74532;SDS011;63012;51.096;-115.366;2023-06-10T06:54:01;10.00;;;4.60;;
74532;SDS011;63012;51.096;-115.366;2023-06-10T06:56:28;10.70;;;5.70;;
74532;SDS011;63012;51.096;-115.366;2023-06-10T06:58:55;9.70;;;5.10;;
74532;SDS011;63012;51.096;-115.366;2023-06-10T07:01:22;9.90;;;4.90;;
74532;SDS011;63012;51.096;-115.366;2023-06-10T07:03:49;11.60;;;5.20;;
74532;SDS011;63012;51.096;-115.366;2023-06-10T07:06:16;11.00;;;5.70;;
74532;SDS011;63012;51.096;-115.366;2023-06-10T07:08:43;9.80;;;5.40;;
74532;SDS011;63012;51.096;-115.366;2023-06-10T07:11:10;9.70;;;4.90;;
74532;SDS011;63012;51.096;-115.366;2023-06-10T07:13:37;10.80;;;4.90;;
74532;SDS011;63012;51.096;-115.366;2023-06-10T07:16:04;10.40;;;5.20;;
74532;SDS011;63012;51.096;-115.366;2023-06-10T07:18:32;10.00;;;5.20;;
74532;SDS011;63012;51.096;-115.366;2023-06-10T07:20:59;10.20;;;4.90;;
74532;SDS011;63012;51.096;-115.366;2023-06-10T07:23:26;10.60;;;5.30;;
74532;SDS011;63012;51.096;-115.366;2023-06-10T07:25:53;9.50;;;4.70;;
74532;SDS011;63012;51.096;-115.366;2023-06-10T07:28:20;10.50;;;5.70;;
74532;SDS011;63012;51.096;-115.366;2023-06-10T07:30:47;12.00;;;5.70;;
74532;SDS011;63012;51.096;-115.366;2023-06-10T07:33:14;9.90;;;5.20;;
74532;SDS011;63012;51.096;-115.366;2023-06-10T07:35:41;10.70;;;5.40;;
74532;SDS011;63012;51.096;-115.366;2023-06-10T07:38:09;10.00;;;5.40;;
74532;SDS011;63012;51.096;-115.366;2023-06-10T07:40:36;10.80;;;5.40;;
74532;SDS011;63012;51.096;-115.366;2023-06-10T07:43:03;10.40;;;5.80;;
74532;SDS011;63012;51.096;-115.366;2023-06-10T07:45:30;10.20;;;5.10;;
74532;SDS011;63012;51.096;-115.366;2023-06-10T07:47:57;11.30;;;5.60;;
74532;SDS011;63012;51.096;-115.366;2023-06-10T07:50:25;10.60;;;5.50;;
74532;SDS011;63012;51.096;-115.366;2023-06-10T07:52:52;10.80;;;6.10;;
74532;SDS011;63012;51.096;-115.366;2023-06-10T07:55:19;10.40;;;5.60;;
74532;SDS011;63012;51.096;-115.366;2023-06-10T07:57:46;10.30;;;5.70;;
74532;SDS011;63012;51.096;-115.366;2023-06-10T08:00:13;10.90;;;5.50;;
74532;SDS011;63012;51.096;-115.366;2023-06-10T08:02:41;10.30;;;5.20;;
74532;SDS011;63012;51.096;-115.366;2023-06-10T08:05:07;10.90;;;5.20;;
74532;SDS011;63012;51.096;-115.366;2023-06-10T08:07:34;10.30;;;5.50;;
74532;SDS011;63012;51.096;-115.366;2023-06-10T08:10:02;11.30;;;5.80;;
74532;SDS011;63012;51.096;-115.366;2023-06-10T08:12:33;10.90;;;5.50;;
74532;SDS011;63012;51.096;-115.366;2023-06-10T08:15:01;10.00;;;5.00;;
74532;SDS011;63012;51.096;-115.366;2023-06-10T08:17:30;9.70;;;5.20;;
74532;SDS011;63012;51.096;-115.366;2023-06-10T08:19:57;11.10;;;6.00;;
74532;SDS011;63012;51.096;-115.366;2023-06-10T08:22:24;10.80;;;5.90;;
74532;SDS011;63012;51.096;-115.366;2023-06-10T08:24:51;9.50;;;4.90;;
74532;SDS011;63012;51.096;-115.366;2023-06-10T08:27:19;10.30;;;5.70;;
74532;SDS011;63012;51.096;-115.366;2023-06-10T08:29:46;10.70;;;5.20;;
74532;SDS011;63012;51.096;-115.366;2023-06-10T08:32:13;10.40;;;5.60;;
74532;SDS011;63012;51.096;-115.366;2023-06-10T08:34:40;10.60;;;5.40;;
74532;SDS011;63012;51.096;-115.366;2023-06-10T08:37:07;10.50;;;5.50;;
74532;SDS011;63012;51.096;-115.366;2023-06-10T08:39:34;10.20;;;5.10;;
74532;SDS011;63012;51.096;-115.366;2023-06-10T08:42:06;10.10;;;5.70;;
74532;SDS011;63012;51.096;-115.366;2023-06-10T08:44:46;10.40;;;5.20;;
74532;SDS011;63012;51.096;-115.366;2023-06-10T08:47:16;10.00;;;5.50;;
74532;SDS011;63012;51.096;-115.366;2023-06-10T08:49:46;10.20;;;5.20;;
74532;SDS011;63012;51.096;-115.366;2023-06-10T08:52:24;9.90;;;5.20;;
74532;SDS011;63012;51.096;-115.366;2023-06-10T08:54:59;10.20;;;5.00;;
74532;SDS011;63012;51.096;-115.366;2023-06-10T08:57:29;10.50;;;5.40;;
74532;SDS011;63012;51.096;-115.366;2023-06-10T08:59:57;11.10;;;5.50;;
74532;SDS011;63012;51.096;-115.366;2023-06-10T09:02:25;9.10;;;4.60;;
74532;SDS011;63012;51.096;-115.366;2023-06-10T09:04:53;9.30;;;4.50;;
74532;SDS011;63012;51.096;-115.366;2023-06-10T09:07:26;10.10;;;5.30;;
74532;SDS011;63012;51.096;-115.366;2023-06-10T09:09:54;11.00;;;5.90;;
74532;SDS011;63012;51.096;-115.366;2023-06-10T09:12:23;10.20;;;5.50;;
74532;SDS011;63012;51.096;-115.366;2023-06-10T09:14:51;10.10;;;5.20;;
74532;SDS011;63012;51.096;-115.366;2023-06-10T09:17:17;9.70;;;4.80;;
74532;SDS011;63012;51.096;-115.366;2023-06-10T09:19:45;10.30;;;4.90;;
74532;SDS011;63012;51.096;-115.366;2023-06-10T09:22:12;10.20;;;5.30;;
74532;SDS011;63012;51.096;-115.366;2023-06-10T09:24:39;10.60;;;5.60;;
74532;SDS011;63012;51.096;-115.366;2023-06-10T09:27:08;9.90;;;5.10;;
74532;SDS011;63012;51.096;-115.366;2023-06-10T09:29:51;9.50;;;4.90;;
74532;SDS011;63012;51.096;-115.366;2023-06-10T09:32:20;9.90;;;5.10;;
74532;SDS011;63012;51.096;-115.366;2023-06-10T09:34:48;9.90;;;5.50;;
74532;SDS011;63012;51.096;-115.366;2023-06-10T09:37:24;9.90;;;5.30;;
74532;SDS011;63012;51.096;-115.366;2023-06-10T09:40:05;10.50;;;5.70;;
74532;SDS011;63012;51.096;-115.366;2023-06-10T09:42:37;9.20;;;4.90;;
74532;SDS011;63012;51.096;-115.366;2023-06-10T09:45:06;9.80;;;5.20;;
74532;SDS011;63012;51.096;-115.366;2023-06-10T09:47:34;10.70;;;5.30;;
74532;SDS011;63012;51.096;-115.366;2023-06-10T09:50:01;10.10;;;5.30;;
74532;SDS011;63012;51.096;-115.366;2023-06-10T09:52:29;10.70;;;5.20;;
74532;SDS011;63012;51.096;-115.366;2023-06-10T09:55:00;10.10;;;4.80;;
74532;SDS011;63012;51.096;-115.366;2023-06-10T09:57:32;12.20;;;5.50;;
74532;SDS011;63012;51.096;-115.366;2023-06-10T10:00:02;11.60;;;5.90;;
74532;SDS011;63012;51.096;-115.366;2023-06-10T10:02:48;11.00;;;5.40;;
74532;SDS011;63012;51.096;-115.366;2023-06-10T10:05:18;10.70;;;5.30;;
74532;SDS011;63012;51.096;-115.366;2023-06-10T10:07:46;10.80;;;5.50;;
74532;SDS011;63012;51.096;-115.366;2023-06-10T10:10:18;12.00;;;5.30;;
74532;SDS011;63012;51.096;-115.366;2023-06-10T10:12:47;10.80;;;5.40;;
74532;SDS011;63012;51.096;-115.366;2023-06-10T10:15:17;10.20;;;5.20;;
74532;SDS011;63012;51.096;-115.366;2023-06-10T10:18:09;13.00;;;5.70;;
74532;SDS011;63012;51.096;-115.366;2023-06-10T10:20:47;13.50;;;5.20;;
74532;SDS011;63012;51.096;-115.366;2023-06-10T10:23:38;11.90;;;5.50;;
74532;SDS011;63012;51.096;-115.366;2023-06-10T10:26:21;10.00;;;5.50;;
74532;SDS011;63012;51.096;-115.366;2023-06-10T10:31:32;10.40;;;4.80;;
74532;SDS011;63012;51.096;-115.366;2023-06-10T10:34:07;10.50;;;5.40;;
74532;SDS011;63012;51.096;-115.366;2023-06-10T10:36:38;10.10;;;4.80;;
74532;SDS011;63012;51.096;-115.366;2023-06-10T10:39:06;10.30;;;5.00;;
74532;SDS011;63012;51.096;-115.366;2023-06-10T10:41:34;9.80;;;5.10;;
74532;SDS011;63012;51.096;-115.366;2023-06-10T10:44:05;9.80;;;4.90;;
74532;SDS011;63012;51.096;-115.366;2023-06-10T10:46:44;10.20;;;5.00;;
74532;SDS011;63012;51.096;-115.366;2023-06-10T10:49:22;11.00;;;5.70;;
74532;SDS011;63012;51.096;-115.366;2023-06-10T10:51:57;10.60;;;5.40;;
74532;SDS011;63012;51.096;-115.366;2023-06-10T10:54:35;10.80;;;5.30;;
74532;SDS011;63012;51.096;-115.366;2023-06-10T10:57:16;10.30;;;5.30;;
74532;SDS011;63012;51.096;-115.366;2023-06-10T10:59:59;11.20;;;5.40;;
74532;SDS011;63012;51.096;-115.366;2023-06-10T11:02:40;9.80;;;5.00;;
74532;SDS011;63012;51.096;-115.366;2023-06-10T11:05:14;11.50;;;5.60;;
74532;SDS011;63012;51.096;-115.366;2023-06-10T11:08:02;11.00;;;5.50;;
74532;SDS011;63012;51.096;-115.366;2023-06-10T11:10:34;10.40;;;5.10;;
74532;SDS011;63012;51.096;-115.366;2023-06-10T11:13:15;10.20;;;5.50;;
74532;SDS011;63012;51.096;-115.366;2023-06-10T11:15:50;10.60;;;5.40;;
74532;SDS011;63012;51.096;-115.366;2023-06-10T11:20:57;9.90;;;4.90;;
74532;SDS011;63012;51.096;-115.366;2023-06-10T11:23:30;10.30;;;4.90;;
74532;SDS011;63012;51.096;-115.366;2023-06-10T11:26:21;10.50;;;5.10;;
74532;SDS011;63012;51.096;-115.366;2023-06-10T11:29:01;10.30;;;4.50;;
74532;SDS011;63012;51.096;-115.366;2023-06-10T11:31:44;11.40;;;5.70;;
74532;SDS011;63012;51.096;-115.366;2023-06-10T11:34:21;10.00;;;4.80;;
74532;SDS011;63012;51.096;-115.366;2023-06-10T11:36:53;9.70;;;5.00;;
74532;SDS011;63012;51.096;-115.366;2023-06-10T11:39:21;9.80;;;5.00;;
74532;SDS011;63012;51.096;-115.366;2023-06-10T11:41:51;10.30;;;5.00;;
74532;SDS011;63012;51.096;-115.366;2023-06-10T11:44:18;10.80;;;5.20;;
74532;SDS011;63012;51.096;-115.366;2023-06-10T11:46:47;10.70;;;4.90;;
74532;SDS011;63012;51.096;-115.366;2023-06-10T11:49:15;10.40;;;4.80;;
74532;SDS011;63012;51.096;-115.366;2023-06-10T11:51:42;10.00;;;5.20;;
74532;SDS011;63012;51.096;-115.366;2023-06-10T11:54:15;10.60;;;5.30;;
74532;SDS011;63012;51.096;-115.366;2023-06-10T11:56:42;10.50;;;5.40;;
74532;SDS011;63012;51.096;-115.366;2023-06-10T11:59:09;10.80;;;5.50;;
74532;SDS011;63012;51.096;-115.366;2023-06-10T12:01:40;11.40;;;5.50;;
74532;SDS011;63012;51.096;-115.366;2023-06-10T12:04:16;10.00;;;5.10;;
74532;SDS011;63012;51.096;-115.366;2023-06-10T12:06:52;10.50;;;5.30;;
74532;SDS011;63012;51.096;-115.366;2023-06-10T12:09:28;10.20;;;5.00;;
74532;SDS011;63012;51.096;-115.366;2023-06-10T12:11:59;9.60;;;5.00;;
74532;SDS011;63012;51.096;-115.366;2023-06-10T12:14:59;10.70;;;4.90;;
74532;SDS011;63012;51.096;-115.366;2023-06-10T12:20:03;11.30;;;5.30;;
74532;SDS011;63012;51.096;-115.366;2023-06-10T12:22:43;9.90;;;5.20;;
74532;SDS011;63012;51.096;-115.366;2023-06-10T12:25:11;10.20;;;4.90;;
74532;SDS011;63012;51.096;-115.366;2023-06-10T12:27:40;10.90;;;5.60;;
74532;SDS011;63012;51.096;-115.366;2023-06-10T12:30:21;12.50;;;4.60;;
74532;SDS011;63012;51.096;-115.366;2023-06-10T12:32:51;10.30;;;5.40;;
74532;SDS011;63012;51.096;-115.366;2023-06-10T12:35:23;10.10;;;5.30;;
74532;SDS011;63012;51.096;-115.366;2023-06-10T12:38:04;10.50;;;5.60;;
74532;SDS011;63012;51.096;-115.366;2023-06-10T12:40:38;12.50;;;5.10;;
74532;SDS011;63012;51.096;-115.366;2023-06-10T12:43:09;9.80;;;5.10;;
74532;SDS011;63012;51.096;-115.366;2023-06-10T12:45:39;10.50;;;5.10;;
74532;SDS011;63012;51.096;-115.366;2023-06-10T12:48:11;11.00;;;5.20;;
74532;SDS011;63012;51.096;-115.366;2023-06-10T12:50:50;10.70;;;5.30;;
74532;SDS011;63012;51.096;-115.366;2023-06-10T12:53:20;11.60;;;5.90;;
74532;SDS011;63012;51.096;-115.366;2023-06-10T12:55:58;11.20;;;4.80;;
74532;SDS011;63012;51.096;-115.366;2023-06-10T12:58:27;10.70;;;5.70;;
74532;SDS011;63012;51.096;-115.366;2023-06-10T13:00:55;10.70;;;5.70;;
74532;SDS011;63012;51.096;-115.366;2023-06-10T13:03:22;10.80;;;5.30;;
74532;SDS011;63012;51.096;-115.366;2023-06-10T13:05:49;10.60;;;5.30;;
74532;SDS011;63012;51.096;-115.366;2023-06-10T13:08:17;10.40;;;5.40;;
74532;SDS011;63012;51.096;-115.366;2023-06-10T13:10:44;10.70;;;5.60;;
74532;SDS011;63012;51.096;-115.366;2023-06-10T13:13:11;10.50;;;5.30;;
74532;SDS011;63012;51.096;-115.366;2023-06-10T13:15:41;10.60;;;5.80;;
74532;SDS011;63012;51.096;-115.366;2023-06-10T13:18:08;11.10;;;5.60;;
74532;SDS011;63012;51.096;-115.366;2023-06-10T13:20:35;9.90;;;5.40;;
74532;SDS011;63012;51.096;-115.366;2023-06-10T13:23:02;10.10;;;5.20;;
74532;SDS011;63012;51.096;-115.366;2023-06-10T13:25:30;10.10;;;5.40;;
74532;SDS011;63012;51.096;-115.366;2023-06-10T13:27:57;11.20;;;5.20;;
74532;SDS011;63012;51.096;-115.366;2023-06-10T13:30:24;10.20;;;5.40;;
74532;SDS011;63012;51.096;-115.366;2023-06-10T13:32:52;9.90;;;5.50;;
74532;SDS011;63012;51.096;-115.366;2023-06-10T13:35:19;10.50;;;5.50;;
74532;SDS011;63012;51.096;-115.366;2023-06-10T13:37:46;10.80;;;5.10;;
74532;SDS011;63012;51.096;-115.366;2023-06-10T13:40:13;10.50;;;5.60;;
74532;SDS011;63012;51.096;-115.366;2023-06-10T13:42:40;11.10;;;5.40;;
74532;SDS011;63012;51.096;-115.366;2023-06-10T13:45:07;11.00;;;5.10;;
74532;SDS011;63012;51.096;-115.366;2023-06-10T13:47:35;10.10;;;5.20;;
74532;SDS011;63012;51.096;-115.366;2023-06-10T13:50:02;10.20;;;5.30;;
74532;SDS011;63012;51.096;-115.366;2023-06-10T13:52:30;10.70;;;5.50;;
74532;SDS011;63012;51.096;-115.366;2023-06-10T13:54:58;10.10;;;5.00;;
74532;SDS011;63012;51.096;-115.366;2023-06-10T13:57:25;10.80;;;6.10;;
74532;SDS011;63012;51.096;-115.366;2023-06-10T13:59:52;10.30;;;5.80;;
74532;SDS011;63012;51.096;-115.366;2023-06-10T14:02:19;11.20;;;5.90;;
74532;SDS011;63012;51.096;-115.366;2023-06-10T14:04:46;11.00;;;5.60;;
74532;SDS011;63012;51.096;-115.366;2023-06-10T14:07:13;10.40;;;5.40;;
74532;SDS011;63012;51.096;-115.366;2023-06-10T14:09:41;10.60;;;5.80;;
74532;SDS011;63012;51.096;-115.366;2023-06-10T14:12:08;10.50;;;5.00;;
74532;SDS011;63012;51.096;-115.366;2023-06-10T14:14:36;10.20;;;5.40;;
74532;SDS011;63012;51.096;-115.366;2023-06-10T14:17:03;10.20;;;5.50;;
74532;SDS011;63012;51.096;-115.366;2023-06-10T14:19:31;12.30;;;5.50;;
74532;SDS011;63012;51.096;-115.366;2023-06-10T14:21:58;10.20;;;5.60;;
74532;SDS011;63012;51.096;-115.366;2023-06-10T14:24:25;11.30;;;5.80;;
74532;SDS011;63012;51.096;-115.366;2023-06-10T14:26:52;10.90;;;6.10;;
74532;SDS011;63012;51.096;-115.366;2023-06-10T14:29:19;12.00;;;6.30;;
74532;SDS011;63012;51.096;-115.366;2023-06-10T14:31:46;9.60;;;4.80;;
74532;SDS011;63012;51.096;-115.366;2023-06-10T14:34:13;10.70;;;5.70;;